createdAt,value
2017-09-27T00:00:45.445Z,93.5
2017-09-27T00:01:46.820Z,94.2
2017-09-27T00:02:48.189Z,93.9
2017-09-27T00:03:49.564Z,94.1
2017-09-27T00:04:50.944Z,93.7
2017-09-27T00:05:52.359Z,93.7
2017-09-27T00:06:53.738Z,93.6
2017-09-27T00:07:55.110Z,93.6
2017-09-27T00:08:56.482Z,93.8
2017-09-27T00:09:57.880Z,94.2
2017-09-27T00:10:59.285Z,93.8
2017-09-27T00:12:00.657Z,94.0
2017-09-27T00:13:02.031Z,94.2
2017-09-27T00:14:03.402Z,93.9
2017-09-27T00:15:04.773Z,93.6
2017-09-27T00:16:06.143Z,93.7
2017-09-27T00:17:07.529Z,93.6
2017-09-27T00:18:08.918Z,94.3
2017-09-27T00:19:10.288Z,93.6
2017-09-27T00:20:11.657Z,93.8
2017-09-27T00:21:13.032Z,93.8
2017-09-27T00:22:14.405Z,93.9
2017-09-27T00:23:15.777Z,94.4
2017-09-27T00:24:17.154Z,93.7
2017-09-27T00:25:18.534Z,93.9
2017-09-27T00:26:19.919Z,94.1
2017-09-27T00:27:21.291Z,94.3
2017-09-27T00:28:22.663Z,94.0
2017-09-27T00:29:24.075Z,94.1
2017-09-27T00:30:25.513Z,93.8
2017-09-27T00:31:26.878Z,94.1
2017-09-27T00:32:28.246Z,94.4
2017-09-27T00:33:29.710Z,93.7
2017-09-27T00:34:31.078Z,93.9
2017-09-27T00:35:32.457Z,93.7
2017-09-27T00:36:33.858Z,94.0
2017-09-27T00:37:35.220Z,93.6
2017-09-27T00:38:36.608Z,94.2
2017-09-27T00:39:37.987Z,93.5
2017-09-27T00:40:39.378Z,93.6
2017-09-27T00:41:40.749Z,93.8
2017-09-27T00:42:42.135Z,94.0
2017-09-27T00:43:43.507Z,93.9
2017-09-27T00:44:44.878Z,94.4
2017-09-27T00:45:46.248Z,94.3
2017-09-27T00:46:47.616Z,94.1
2017-09-27T00:47:49.001Z,94.1
2017-09-27T00:48:50.371Z,94.3
2017-09-27T00:49:51.743Z,94.3
2017-09-27T00:50:53.119Z,94.9
2017-09-27T00:51:54.497Z,94.9
2017-09-27T00:52:55.868Z,94.7
2017-09-27T00:53:57.240Z,95.2
2017-09-27T00:54:58.610Z,95.6
2017-09-27T00:55:59.990Z,95.5
2017-09-27T00:57:01.362Z,95.4
2017-09-27T00:58:02.734Z,95.6
2017-09-27T00:59:04.101Z,96.0
2017-09-27T01:00:05.474Z,95.9
2017-09-27T01:01:06.853Z,95.7
2017-09-27T01:02:08.219Z,96.3
2017-09-27T01:03:09.588Z,95.7
2017-09-27T01:04:10.962Z,95.6
2017-09-27T01:05:12.335Z,95.8
2017-09-27T01:06:13.712Z,95.7
2017-09-27T01:07:15.082Z,95.4
2017-09-27T01:08:16.457Z,95.3
2017-09-27T01:09:17.829Z,95.5
2017-09-27T01:10:19.201Z,95.2
2017-09-27T01:11:20.604Z,95.5
2017-09-27T01:12:21.947Z,95.6
2017-09-27T01:13:23.316Z,95.4
2017-09-27T01:14:24.685Z,95.4
2017-09-27T01:15:26.055Z,95.8
2017-09-27T01:16:27.426Z,95.6
2017-09-27T01:17:28.792Z,95.8
2017-09-27T01:18:30.168Z,95.8
2017-09-27T01:19:31.547Z,95.8
2017-09-27T01:20:32.916Z,96.0
2017-09-27T01:21:34.289Z,96.0
2017-09-27T01:22:35.656Z,96.0
2017-09-27T01:23:37.034Z,95.8
2017-09-27T01:24:38.398Z,95.9
2017-09-27T01:25:39.772Z,96.0
2017-09-27T01:26:41.143Z,96.3
2017-09-27T01:27:42.517Z,95.9
2017-09-27T01:28:43.890Z,96.0
2017-09-27T01:29:45.256Z,96.2
2017-09-27T01:30:46.628Z,96.3
2017-09-27T01:31:48.002Z,96.1
2017-09-27T01:32:49.377Z,96.1
2017-09-27T01:33:50.747Z,96.3
2017-09-27T01:34:52.116Z,96.6
2017-09-27T01:35:53.489Z,95.6
2017-09-27T01:36:54.857Z,96.0
2017-09-27T01:37:56.224Z,95.4
2017-09-27T01:38:57.596Z,95.2
2017-09-27T01:39:58.975Z,95.2
2017-09-27T01:41:00.344Z,95.3
2017-09-27T01:42:01.713Z,95.3
2017-09-27T01:43:03.084Z,95.4
2017-09-27T01:44:04.480Z,95.6
2017-09-27T01:45:05.827Z,95.4
2017-09-27T01:46:07.227Z,95.5
2017-09-27T01:47:08.608Z,95.4
2017-09-27T01:48:09.979Z,95.5
2017-09-27T01:49:11.349Z,95.2
2017-09-27T01:50:12.718Z,95.3
2017-09-27T01:51:14.089Z,95.5
2017-09-27T01:52:15.466Z,95.5
2017-09-27T01:53:16.838Z,95.0
2017-09-27T01:54:18.213Z,95.0
2017-09-27T01:55:19.585Z,94.8
2017-09-27T01:56:20.956Z,94.8
2017-09-27T01:57:22.324Z,95.1
2017-09-27T01:58:23.710Z,95.2
2017-09-27T01:59:25.079Z,95.0
2017-09-27T02:00:26.453Z,95.1
2017-09-27T02:01:27.828Z,95.0
2017-09-27T02:02:29.200Z,95.1
2017-09-27T02:03:30.570Z,95.0
2017-09-27T02:04:31.953Z,94.5
2017-09-27T02:05:33.327Z,94.5
2017-09-27T02:06:34.698Z,94.5
2017-09-27T02:07:36.065Z,94.5
2017-09-27T02:08:37.446Z,94.6
2017-09-27T02:09:38.817Z,94.9
2017-09-27T02:10:40.193Z,94.3
2017-09-27T02:11:41.565Z,94.5
2017-09-27T02:12:42.930Z,94.8
2017-09-27T02:13:44.305Z,94.5
2017-09-27T02:14:45.690Z,95.0
2017-09-27T02:15:47.053Z,94.7
2017-09-27T02:16:48.426Z,95.1
2017-09-27T02:17:49.796Z,94.4
2017-09-27T02:18:51.211Z,94.5
2017-09-27T02:19:52.578Z,94.9
2017-09-27T02:20:53.947Z,94.7
2017-09-27T02:21:55.349Z,94.7
2017-09-27T02:22:56.721Z,93.9
2017-09-27T02:23:58.129Z,94.7
2017-09-27T02:24:59.511Z,94.8
2017-09-27T02:26:00.909Z,94.6
2017-09-27T02:27:02.287Z,94.8
2017-09-27T02:28:03.664Z,94.8
2017-09-27T02:29:05.035Z,94.8
2017-09-27T02:30:06.413Z,94.8
2017-09-27T02:31:07.779Z,94.5
2017-09-27T02:32:09.147Z,94.5
2017-09-27T02:33:10.517Z,94.7
2017-09-27T02:34:11.891Z,94.9
2017-09-27T02:35:13.263Z,94.9
2017-09-27T02:36:14.638Z,94.9
2017-09-27T02:37:16.010Z,94.5
2017-09-27T02:38:17.382Z,93.9
2017-09-27T02:39:18.753Z,94.1
2017-09-27T02:40:20.122Z,94.0
2017-09-27T02:41:21.494Z,94.1
2017-09-27T02:42:22.861Z,94.1
2017-09-27T02:43:24.234Z,93.4
2017-09-27T02:44:25.612Z,94.2
2017-09-27T02:45:26.990Z,94.1
2017-09-27T02:46:28.360Z,93.8
2017-09-27T02:47:29.732Z,94.0
2017-09-27T02:48:31.096Z,94.1
2017-09-27T02:49:32.479Z,93.7
2017-09-27T02:50:33.850Z,93.9
2017-09-27T02:51:35.229Z,93.5
2017-09-27T02:52:36.601Z,93.8
2017-09-27T02:53:37.970Z,93.3
2017-09-27T02:54:39.338Z,94.4
2017-09-27T02:55:40.710Z,93.5
2017-09-27T02:56:42.081Z,94.2
2017-09-27T02:57:43.452Z,94.1
2017-09-27T02:58:44.822Z,94.1
2017-09-27T02:59:46.207Z,94.1
2017-09-27T03:00:47.569Z,94.4
2017-09-27T03:01:48.938Z,93.9
2017-09-27T03:02:50.310Z,94.2
2017-09-27T03:03:51.681Z,93.9
2017-09-27T03:04:53.054Z,94.2
2017-09-27T03:05:54.425Z,93.8
2017-09-27T03:06:55.798Z,93.7
2017-09-27T03:07:57.172Z,94.1
2017-09-27T03:08:58.542Z,94.9
2017-09-27T03:09:59.908Z,94.9
2017-09-27T03:11:01.272Z,95.0
2017-09-27T03:12:02.662Z,94.9
2017-09-27T03:13:04.033Z,94.7
2017-09-27T03:14:05.407Z,94.5
2017-09-27T03:15:06.798Z,94.7
2017-09-27T03:16:08.174Z,94.6
2017-09-27T03:17:09.545Z,94.7
2017-09-27T03:18:10.915Z,94.4
2017-09-27T03:19:12.284Z,94.1
2017-09-27T03:20:13.655Z,93.8
2017-09-27T03:21:15.032Z,94.2
2017-09-27T03:22:16.417Z,94.1
2017-09-27T03:23:17.775Z,93.9
2017-09-27T03:24:19.145Z,93.7
2017-09-27T03:25:20.515Z,94.2
2017-09-27T03:26:21.900Z,93.6
2017-09-27T03:27:23.269Z,93.4
2017-09-27T03:28:24.647Z,93.6
2017-09-27T03:29:26.015Z,93.6
2017-09-27T03:30:27.387Z,93.4
2017-09-27T03:31:28.754Z,94.1
2017-09-27T03:32:30.129Z,93.6
2017-09-27T03:33:31.498Z,93.5
2017-09-27T03:34:32.868Z,93.6
2017-09-27T03:35:34.240Z,94.0
2017-09-27T03:36:35.610Z,93.5
2017-09-27T03:37:36.992Z,93.8
2017-09-27T03:38:38.356Z,94.2
2017-09-27T03:39:39.718Z,94.1
2017-09-27T03:40:41.085Z,94.3
2017-09-27T03:41:42.462Z,94.0
2017-09-27T03:42:43.832Z,94.1
2017-09-27T03:43:45.204Z,94.0
2017-09-27T03:44:46.576Z,94.0
2017-09-27T03:45:47.956Z,93.9
2017-09-27T03:46:49.335Z,93.9
2017-09-27T03:47:50.711Z,94.0
2017-09-27T03:48:52.107Z,93.6
2017-09-27T03:49:53.510Z,93.7
2017-09-27T03:50:54.880Z,93.9
2017-09-27T03:51:56.253Z,93.7
2017-09-27T03:52:57.616Z,93.9
2017-09-27T03:53:59.009Z,94.7
2017-09-27T03:55:00.380Z,93.9
2017-09-27T03:56:01.777Z,94.6
2017-09-27T03:57:03.138Z,94.7
2017-09-27T03:58:04.506Z,94.6
2017-09-27T03:59:05.905Z,94.5
2017-09-27T04:00:07.277Z,94.6
2017-09-27T04:01:08.648Z,94.5
2017-09-27T04:02:10.025Z,94.8
2017-09-27T04:03:11.398Z,94.5
2017-09-27T04:04:12.771Z,94.5
2017-09-27T04:05:14.137Z,94.6
2017-09-27T04:06:15.506Z,94.7
2017-09-27T04:07:16.879Z,95.0
2017-09-27T04:08:18.247Z,94.7
2017-09-27T04:09:19.617Z,94.7
2017-09-27T04:10:20.990Z,95.1
2017-09-27T04:11:22.365Z,95.0
2017-09-27T04:12:23.734Z,94.6
2017-09-27T04:13:25.104Z,95.4
2017-09-27T04:14:26.473Z,95.4
2017-09-27T04:15:27.849Z,95.0
2017-09-27T04:16:29.215Z,95.4
2017-09-27T04:17:30.589Z,94.9
2017-09-27T04:18:31.963Z,94.6
2017-09-27T04:19:33.332Z,94.9
2017-09-27T04:20:34.703Z,94.4
2017-09-27T04:21:36.080Z,94.4
2017-09-27T04:22:37.445Z,94.7
2017-09-27T04:23:38.821Z,94.5
2017-09-27T04:24:40.192Z,94.6
2017-09-27T04:25:41.562Z,94.5
2017-09-27T04:26:42.936Z,94.6
2017-09-27T04:27:44.307Z,94.5
2017-09-27T04:28:45.679Z,94.5
2017-09-27T04:29:47.050Z,94.7
2017-09-27T04:30:48.420Z,94.2
2017-09-27T04:31:49.797Z,93.5
2017-09-27T04:32:51.162Z,94.2
2017-09-27T04:33:52.533Z,94.0
2017-09-27T04:34:53.900Z,94.2
2017-09-27T04:35:55.280Z,93.8
2017-09-27T04:36:56.678Z,94.1
2017-09-27T04:37:58.079Z,94.2
2017-09-27T04:38:59.440Z,94.1
2017-09-27T04:40:00.815Z,94.2
2017-09-27T04:41:02.197Z,93.7
2017-09-27T04:42:03.565Z,93.8
2017-09-27T04:43:04.966Z,94.3
2017-09-27T04:44:06.358Z,93.9
2017-09-27T04:45:07.842Z,93.7
2017-09-27T04:46:09.206Z,94.0
2017-09-27T04:47:10.646Z,94.5
2017-09-27T04:48:12.077Z,94.6
2017-09-27T04:49:13.448Z,94.7
2017-09-27T04:50:14.949Z,94.7
2017-09-27T04:51:16.385Z,94.5
2017-09-27T04:52:17.798Z,94.5
2017-09-27T04:53:19.190Z,94.7
2017-09-27T04:54:20.562Z,94.8
2017-09-27T04:55:21.942Z,94.4
2017-09-27T04:56:23.325Z,94.6
2017-09-27T04:57:24.691Z,94.5
2017-09-27T04:58:26.080Z,95.0
2017-09-27T04:59:27.446Z,94.3
2017-09-27T05:00:28.820Z,94.3
2017-09-27T05:01:30.212Z,93.8
2017-09-27T05:02:31.916Z,93.7
2017-09-27T05:03:33.435Z,94.8
2017-09-27T05:04:34.842Z,94.7
2017-09-27T05:05:36.219Z,94.7
2017-09-27T05:06:37.638Z,94.1
2017-09-27T05:07:39.024Z,93.4
2017-09-27T05:08:40.427Z,94.1
2017-09-27T05:09:41.825Z,93.7
2017-09-27T05:10:43.248Z,93.8
2017-09-27T05:11:44.627Z,94.7
2017-09-27T05:12:46.053Z,94.7
2017-09-27T05:13:47.488Z,94.7
2017-09-27T05:14:48.902Z,94.6
2017-09-27T05:15:50.287Z,94.8
2017-09-27T05:16:51.720Z,95.0
2017-09-27T05:17:53.104Z,94.8
2017-09-27T05:18:54.543Z,94.7
2017-09-27T05:19:55.932Z,94.5
2017-09-27T05:20:57.320Z,94.5
2017-09-27T05:21:58.704Z,95.4
2017-09-27T05:23:00.107Z,95.6
2017-09-27T05:24:01.497Z,95.6
2017-09-27T05:25:02.940Z,96.1
2017-09-27T05:26:04.306Z,96.1
2017-09-27T05:27:05.716Z,96.1
2017-09-27T05:28:07.128Z,95.5
2017-09-27T05:29:08.512Z,95.9
2017-09-27T05:30:09.890Z,95.2
2017-09-27T05:31:11.332Z,95.7
2017-09-27T05:32:12.721Z,95.8
2017-09-27T05:33:14.095Z,95.9
2017-09-27T05:34:15.485Z,95.6
2017-09-27T05:35:16.908Z,95.5
2017-09-27T05:36:18.281Z,96.1
2017-09-27T05:37:19.708Z,95.4
2017-09-27T05:38:21.068Z,95.1
2017-09-27T05:39:22.517Z,95.3
2017-09-27T05:40:23.894Z,95.0
2017-09-27T05:41:25.296Z,95.0
2017-09-27T05:42:26.741Z,94.8
2017-09-27T05:43:28.465Z,94.5
2017-09-27T05:44:29.847Z,94.5
2017-09-27T05:45:31.228Z,95.0
2017-09-27T05:46:32.629Z,95.1
2017-09-27T05:47:34.056Z,95.5
2017-09-27T05:48:35.440Z,94.9
2017-09-27T05:49:36.878Z,95.0
2017-09-27T05:50:38.289Z,94.6
2017-09-27T05:51:39.662Z,93.9
2017-09-27T05:52:41.061Z,93.6
2017-09-27T05:53:42.456Z,94.0
2017-09-27T05:54:43.838Z,94.2
2017-09-27T05:55:45.268Z,94.2
2017-09-27T05:56:46.831Z,94.1
2017-09-27T05:57:48.255Z,94.1
2017-09-27T05:58:49.713Z,94.7
2017-09-27T05:59:51.228Z,94.5
2017-09-27T06:00:53.085Z,94.5
2017-09-27T06:01:54.486Z,94.4
2017-09-27T06:02:55.873Z,94.6
2017-09-27T06:03:57.269Z,94.5
2017-09-27T06:04:58.660Z,94.8
2017-09-27T06:06:00.034Z,94.0
2017-09-27T06:07:01.530Z,94.1
2017-09-27T06:08:02.933Z,94.1
2017-09-27T06:09:04.305Z,94.1
2017-09-27T06:10:05.683Z,94.1
2017-09-27T06:11:07.077Z,94.0
2017-09-27T06:12:08.499Z,94.1
2017-09-27T06:13:09.892Z,93.5
2017-09-27T06:14:11.467Z,93.6
2017-09-27T06:15:12.877Z,93.2
2017-09-27T06:16:14.368Z,93.6
2017-09-27T06:17:15.732Z,93.4
2017-09-27T06:18:17.124Z,93.6
2017-09-27T06:19:18.528Z,93.9
2017-09-27T06:20:19.922Z,93.9
2017-09-27T06:21:21.313Z,93.6
2017-09-27T06:22:23.097Z,93.6
2017-09-27T06:23:24.518Z,93.8
2017-09-27T06:24:25.937Z,93.6
2017-09-27T06:25:27.449Z,93.6
2017-09-27T06:26:28.852Z,93.6
2017-09-27T06:27:30.257Z,93.8
2017-09-27T06:28:31.676Z,93.5
2017-09-27T06:29:33.056Z,93.6
2017-09-27T06:30:34.430Z,93.9
2017-09-27T06:31:35.808Z,93.5
2017-09-27T06:32:37.536Z,93.7
2017-09-27T06:33:38.980Z,93.6
2017-09-27T06:34:40.394Z,93.8
2017-09-27T06:35:41.787Z,93.5
2017-09-27T06:36:43.189Z,93.6
2017-09-27T06:37:44.620Z,94.5
2017-09-27T06:38:45.950Z,93.6
2017-09-27T06:39:47.373Z,93.6
2017-09-27T06:40:48.756Z,93.5
2017-09-27T06:41:50.136Z,93.3
2017-09-27T06:42:51.606Z,92.7
2017-09-27T06:43:52.990Z,92.3
2017-09-27T06:44:54.407Z,92.4
2017-09-27T06:45:55.776Z,92.5
2017-09-27T06:46:57.237Z,92.0
2017-09-27T06:47:58.650Z,91.2
2017-09-27T06:49:00.082Z,91.0
2017-09-27T06:50:01.544Z,90.1
2017-09-27T06:51:02.928Z,88.7
2017-09-27T06:52:04.320Z,88.9
2017-09-27T06:53:05.695Z,89.1
2017-09-27T06:54:07.101Z,88.2
2017-09-27T06:55:08.522Z,88.0
2017-09-27T06:56:09.898Z,87.3
2017-09-27T06:57:11.312Z,87.1
2017-09-27T06:58:12.693Z,87.1
2017-09-27T06:59:14.147Z,87.3
2017-09-27T07:00:15.547Z,86.3
2017-09-27T07:01:17.174Z,86.2
2017-09-27T07:02:18.565Z,85.8
2017-09-27T07:03:19.947Z,85.1
2017-09-27T07:04:21.323Z,84.9
2017-09-27T07:05:22.711Z,83.6
2017-09-27T07:06:24.129Z,82.9
2017-09-27T07:07:25.512Z,83.1
2017-09-27T07:08:26.908Z,82.8
2017-09-27T07:09:28.296Z,82.7
2017-09-27T07:10:29.730Z,81.8
2017-09-27T07:11:31.140Z,81.2
2017-09-27T07:12:32.518Z,81.5
2017-09-27T07:13:33.897Z,81.8
2017-09-27T07:14:35.425Z,80.8
2017-09-27T07:15:36.861Z,79.6
2017-09-27T07:16:38.514Z,79.3
2017-09-27T07:17:39.925Z,79.1
2017-09-27T07:18:41.343Z,79.1
2017-09-27T07:19:42.714Z,80.2
2017-09-27T07:20:44.097Z,78.8
2017-09-27T07:21:45.514Z,79.0
2017-09-27T07:22:46.935Z,79.0
2017-09-27T07:23:48.328Z,78.3
2017-09-27T07:24:49.705Z,78.5
2017-09-27T07:25:51.112Z,78.5
2017-09-27T07:26:52.495Z,78.0
2017-09-27T07:27:53.964Z,77.7
2017-09-27T07:28:55.397Z,77.0
2017-09-27T07:29:56.805Z,76.2
2017-09-27T07:30:58.189Z,76.3
2017-09-27T07:31:59.582Z,75.7
2017-09-27T07:33:01.031Z,75.0
2017-09-27T07:34:02.780Z,74.0
2017-09-27T07:35:04.404Z,74.1
2017-09-27T07:36:05.827Z,73.8
2017-09-27T07:37:07.271Z,73.0
2017-09-27T07:38:08.646Z,74.3
2017-09-27T07:39:10.082Z,73.9
2017-09-27T07:40:11.567Z,73.1
2017-09-27T07:41:12.941Z,72.9
2017-09-27T07:42:14.351Z,71.9
2017-09-27T07:43:15.738Z,71.4
2017-09-27T07:44:17.165Z,71.3
2017-09-27T07:45:18.594Z,70.7
2017-09-27T07:46:20.010Z,69.8
2017-09-27T07:47:21.386Z,69.1
2017-09-27T07:48:22.768Z,68.9
2017-09-27T07:49:24.159Z,68.3
2017-09-27T07:50:25.563Z,69.2
2017-09-27T07:51:26.977Z,70.0
2017-09-27T07:52:28.372Z,69.8
2017-09-27T07:53:29.783Z,70.3
2017-09-27T07:54:31.228Z,69.3
2017-09-27T07:55:32.620Z,69.1
2017-09-27T07:56:34.000Z,68.7
2017-09-27T07:57:35.392Z,67.8
2017-09-27T07:58:36.786Z,67.5
2017-09-27T07:59:38.172Z,67.0
2017-09-27T08:00:39.588Z,68.2
2017-09-27T08:01:40.972Z,67.5
2017-09-27T08:02:42.357Z,67.6
2017-09-27T08:03:43.743Z,66.8
2017-09-27T08:04:45.151Z,65.9
2017-09-27T08:05:46.561Z,66.8
2017-09-27T08:06:47.923Z,66.5
2017-09-27T08:07:50.056Z,66.8
2017-09-27T08:08:51.415Z,65.4
2017-09-27T08:10:33.812Z,65.4
2017-09-27T08:11:35.193Z,64.9
2017-09-27T08:12:36.597Z,63.9
2017-09-27T08:13:37.954Z,63.7
2017-09-27T08:14:39.361Z,63.5
2017-09-27T08:15:40.741Z,62.4
2017-09-27T08:16:42.133Z,63.1
2017-09-27T08:17:43.520Z,63.3
2017-09-27T08:18:44.913Z,64.1
2017-09-27T08:19:46.299Z,64.8
2017-09-27T08:20:47.693Z,62.9
2017-09-27T08:21:49.081Z,64.6
2017-09-27T08:22:50.463Z,65.0
2017-09-27T08:23:51.857Z,64.2
2017-09-27T08:24:53.245Z,63.8
2017-09-27T08:25:54.637Z,63.8
2017-09-27T08:26:56.022Z,63.5
2017-09-27T08:27:57.408Z,63.1
2017-09-27T08:28:58.795Z,62.8
2017-09-27T08:30:00.189Z,62.5
2017-09-27T08:31:01.579Z,63.2
2017-09-27T08:32:02.973Z,61.5
2017-09-27T08:33:04.355Z,62.8
2017-09-27T08:34:05.743Z,60.2
2017-09-27T08:35:07.133Z,59.4
2017-09-27T08:36:08.522Z,59.1
2017-09-27T08:37:09.904Z,58.2
2017-09-27T08:38:11.308Z,59.1
2017-09-27T08:39:12.690Z,58.3
2017-09-27T08:40:14.078Z,59.1
2017-09-27T08:41:15.467Z,59.6
2017-09-27T08:42:57.860Z,58.7
2017-09-27T08:43:59.247Z,58.8
2017-09-27T08:45:00.630Z,61.3
2017-09-27T08:46:02.015Z,61.5
2017-09-27T08:47:03.402Z,60.6
2017-09-27T08:48:04.783Z,59.4
2017-09-27T08:49:06.176Z,61.2
2017-09-27T08:50:07.562Z,60.8
2017-09-27T08:51:08.947Z,60.6
2017-09-27T08:52:10.334Z,59.3
2017-09-27T08:53:11.731Z,60.2
2017-09-27T08:54:13.114Z,61.3
2017-09-27T08:55:14.501Z,60.1
2017-09-27T08:56:15.894Z,60.0
2017-09-27T08:57:17.283Z,59.8
2017-09-27T08:58:59.683Z,57.3
2017-09-27T09:00:01.071Z,57.6
2017-09-27T09:01:02.453Z,58.8
2017-09-27T09:02:03.843Z,60.6
2017-09-27T09:03:05.225Z,60.7
2017-09-27T09:04:06.624Z,58.8
2017-09-27T09:05:08.012Z,59.3
2017-09-27T09:06:09.400Z,59.6
2017-09-27T09:07:10.784Z,61.3
2017-09-27T09:08:12.171Z,61.6
2017-09-27T09:09:13.556Z,61.8
2017-09-27T09:10:14.943Z,62.0
2017-09-27T09:11:16.328Z,62.7
2017-09-27T09:12:17.726Z,63.5
2017-09-27T09:13:19.126Z,64.4
2017-09-27T09:14:20.512Z,63.0
2017-09-27T09:15:21.910Z,62.6
2017-09-27T09:16:23.300Z,63.3
2017-09-27T09:17:24.683Z,63.8
2017-09-27T09:18:26.067Z,62.9
2017-09-27T09:19:27.454Z,62.9
2017-09-27T09:20:28.849Z,62.7
2017-09-27T09:21:30.234Z,63.4
2017-09-27T09:22:31.620Z,63.7
2017-09-27T09:23:33.003Z,64.5
2017-09-27T09:24:34.389Z,63.9
2017-09-27T09:25:35.773Z,62.8
2017-09-27T09:26:37.158Z,65.4
2017-09-27T09:27:38.546Z,65.9
2017-09-27T09:28:39.928Z,66.6
2017-09-27T09:29:41.313Z,64.4
2017-09-27T09:31:23.697Z,65.9
2017-09-27T09:32:25.079Z,64.9
2017-09-27T09:33:26.465Z,65.9
2017-09-27T09:34:27.847Z,66.8
2017-09-27T09:35:29.245Z,65.9
2017-09-27T09:36:30.620Z,65.2
2017-09-27T09:37:32.006Z,63.3
2017-09-27T09:38:33.395Z,62.6
2017-09-27T09:39:34.784Z,61.4
2017-09-27T09:40:36.166Z,60.8
2017-09-27T09:41:37.562Z,59.1
2017-09-27T09:42:38.946Z,56.5
2017-09-27T09:43:40.332Z,56.7
2017-09-27T09:44:41.723Z,56.8
2017-09-27T09:45:43.109Z,56.6
2017-09-27T09:47:25.494Z,55.8
2017-09-27T09:48:26.891Z,55.5
2017-09-27T09:49:28.280Z,55.3
2017-09-27T09:50:29.657Z,54.9
2017-09-27T09:51:31.047Z,54.9
2017-09-27T09:52:32.462Z,54.9
2017-09-27T09:53:33.861Z,54.2
2017-09-27T09:54:35.250Z,54.5
2017-09-27T09:55:36.633Z,53.9
2017-09-27T09:56:38.027Z,53.6
2017-09-27T09:57:39.417Z,54.9
2017-09-27T09:58:40.805Z,54.2
2017-09-27T09:59:42.197Z,52.6
2017-09-27T10:00:43.587Z,52.7
2017-09-27T10:01:44.987Z,52.8
2017-09-27T10:02:46.376Z,51.5
2017-09-27T10:03:47.776Z,51.4
2017-09-27T10:04:49.160Z,50.4
2017-09-27T10:05:50.558Z,48.9
2017-09-27T10:06:51.957Z,49.5
2017-09-27T10:07:53.356Z,47.5
2017-09-27T10:08:54.748Z,46.5
2017-09-27T10:09:56.142Z,46.2
2017-09-27T10:10:57.534Z,46.6
2017-09-27T10:11:58.927Z,45.3
2017-09-27T10:13:00.317Z,46.1
2017-09-27T10:14:01.713Z,46.6
2017-09-27T10:15:03.105Z,44.7
2017-09-27T10:16:04.498Z,46.0
2017-09-27T10:17:05.890Z,46.4
2017-09-27T10:18:07.282Z,47.1
2017-09-27T10:19:08.677Z,45.1
2017-09-27T10:20:10.072Z,44.7
2017-09-27T10:21:11.470Z,43.3
2017-09-27T10:22:12.858Z,42.0
2017-09-27T10:23:14.251Z,43.2
2017-09-27T10:24:15.674Z,42.5
2017-09-27T10:25:17.076Z,43.1
2017-09-27T10:26:18.463Z,43.9
2017-09-27T10:27:19.857Z,42.4
2017-09-27T10:28:21.250Z,41.1
2017-09-27T10:29:22.644Z,41.5
2017-09-27T10:30:24.037Z,42.6
2017-09-27T10:31:25.431Z,44.1
2017-09-27T10:32:26.823Z,42.8
2017-09-27T10:33:28.214Z,41.8
2017-09-27T10:34:29.608Z,42.3
2017-09-27T10:35:31.000Z,39.9
2017-09-27T10:36:32.398Z,40.8
2017-09-27T10:37:33.793Z,38.7
2017-09-27T10:38:35.191Z,39.8
2017-09-27T10:39:36.579Z,41.0
2017-09-27T10:40:37.985Z,40.4
2017-09-27T10:41:39.383Z,42.1
2017-09-27T10:42:40.773Z,38.2
2017-09-27T10:43:42.170Z,38.4
2017-09-27T10:44:43.564Z,36.7
2017-09-27T10:45:44.955Z,37.3
2017-09-27T10:46:46.352Z,37.7
2017-09-27T10:47:47.747Z,39.0
2017-09-27T10:48:49.138Z,37.7
2017-09-27T10:49:50.533Z,36.7
2017-09-27T10:51:31.924Z,37.8
2017-09-27T10:52:33.320Z,38.0
2017-09-27T10:53:55.377Z,38.0
2017-09-27T10:54:56.767Z,38.2
2017-09-27T10:56:18.777Z,39.3
2017-09-27T10:57:20.172Z,38.9
2017-09-27T10:58:42.206Z,39.2
2017-09-27T10:59:43.601Z,37.7
2017-09-27T11:00:44.994Z,38.5
2017-09-27T11:01:46.391Z,37.8
2017-09-27T11:02:47.787Z,37.3
2017-09-27T11:03:49.177Z,37.8
2017-09-27T11:04:50.575Z,38.8
2017-09-27T11:05:51.970Z,38.7
2017-09-27T11:06:53.374Z,38.4
2017-09-27T11:07:54.766Z,38.9
2017-09-27T11:08:56.158Z,38.5
2017-09-27T11:09:57.554Z,37.1
2017-09-27T11:10:58.951Z,37.4
2017-09-27T11:12:00.344Z,38.7
2017-09-27T11:13:01.742Z,38.5
2017-09-27T11:14:03.135Z,38.0
2017-09-27T11:15:04.525Z,37.8
2017-09-27T11:16:05.931Z,39.6
2017-09-27T11:17:07.336Z,38.4
2017-09-27T11:18:08.722Z,35.7
2017-09-27T11:19:10.122Z,37.0
2017-09-27T11:20:11.517Z,34.6
2017-09-27T11:21:12.907Z,35.4
2017-09-27T11:22:14.312Z,35.8
2017-09-27T11:23:15.715Z,35.6
2017-09-27T11:24:17.108Z,36.3
2017-09-27T11:25:18.503Z,35.7
2017-09-27T11:26:19.897Z,34.9
2017-09-27T11:27:21.296Z,35.3
2017-09-27T11:28:22.690Z,34.8
2017-09-27T11:29:24.084Z,33.9
2017-09-27T11:30:25.482Z,35.8
2017-09-27T11:31:26.888Z,35.3
2017-09-27T11:32:28.286Z,35.2
2017-09-27T11:33:29.682Z,35.7
2017-09-27T11:34:31.081Z,35.7
2017-09-27T11:35:32.474Z,35.6
2017-09-27T11:36:33.872Z,36.0
2017-09-27T11:37:35.262Z,34.8
2017-09-27T11:38:36.660Z,35.7
2017-09-27T11:39:38.064Z,35.5
2017-09-27T11:40:39.462Z,34.6
2017-09-27T11:41:40.857Z,35.8
2017-09-27T11:42:42.286Z,37.1
2017-09-27T11:43:43.657Z,40.4
2017-09-27T11:44:45.057Z,38.2
2017-09-27T11:45:46.454Z,38.5
2017-09-27T11:46:47.850Z,38.7
2017-09-27T11:47:49.249Z,38.7
2017-09-27T11:48:50.647Z,38.1
2017-09-27T11:49:52.040Z,38.0
2017-09-27T11:50:53.438Z,38.7
2017-09-27T11:51:54.831Z,37.8
2017-09-27T11:52:56.225Z,36.5
2017-09-27T11:53:57.643Z,36.3
2017-09-27T11:54:59.031Z,37.0
2017-09-27T11:56:00.428Z,37.9
2017-09-27T11:57:01.826Z,39.2
2017-09-27T11:58:03.247Z,39.3
2017-09-27T11:59:04.606Z,39.2
2017-09-27T12:00:06.000Z,41.3
2017-09-27T12:01:07.390Z,39.9
2017-09-27T12:02:08.786Z,41.1
2017-09-27T12:03:10.178Z,41.3
2017-09-27T12:04:11.571Z,40.7
2017-09-27T12:05:12.963Z,40.4
2017-09-27T12:06:14.347Z,40.4
2017-09-27T12:07:15.747Z,40.5
2017-09-27T12:08:17.137Z,39.1
2017-09-27T12:09:18.548Z,38.4
2017-09-27T12:10:19.943Z,38.4
2017-09-27T12:11:21.331Z,38.2
2017-09-27T12:12:22.726Z,35.4
2017-09-27T12:13:24.121Z,36.6
2017-09-27T12:14:25.516Z,37.6
2017-09-27T12:15:26.910Z,36.8
2017-09-27T12:16:28.308Z,37.1
2017-09-27T12:17:29.704Z,36.7
2017-09-27T12:18:31.097Z,36.7
2017-09-27T12:19:32.489Z,37.0
2017-09-27T12:20:33.880Z,37.1
2017-09-27T12:21:35.274Z,38.0
2017-09-27T12:22:36.669Z,38.4
2017-09-27T12:23:38.061Z,37.9
2017-09-27T12:24:39.455Z,39.3
2017-09-27T12:25:40.845Z,38.7
2017-09-27T12:26:42.237Z,39.8
2017-09-27T12:27:43.632Z,41.1
2017-09-27T12:28:45.027Z,41.3
2017-09-27T12:29:46.422Z,42.6
2017-09-27T12:30:47.852Z,42.6
2017-09-27T12:31:49.209Z,43.3
2017-09-27T12:32:50.599Z,44.2
2017-09-27T12:33:51.989Z,43.5
2017-09-27T12:34:53.383Z,42.9
2017-09-27T12:35:54.780Z,43.4
2017-09-27T12:36:56.173Z,42.3
2017-09-27T12:37:57.565Z,42.1
2017-09-27T12:38:58.959Z,42.7
2017-09-27T12:40:00.348Z,42.4
2017-09-27T12:41:01.744Z,42.1
2017-09-27T12:42:03.136Z,42.8
2017-09-27T12:43:04.525Z,41.9
2017-09-27T12:44:05.916Z,43.2
2017-09-27T12:45:07.300Z,42.4
2017-09-27T12:46:08.718Z,42.9
2017-09-27T12:47:10.107Z,42.5
2017-09-27T12:48:11.505Z,43.1
2017-09-27T12:49:12.886Z,43.2
2017-09-27T12:50:14.276Z,44.2
2017-09-27T12:51:15.673Z,44.4
2017-09-27T12:52:17.062Z,45.4
2017-09-27T12:53:18.452Z,46.4
2017-09-27T12:54:19.839Z,46.9
2017-09-27T12:55:21.229Z,47.5
2017-09-27T12:56:22.615Z,48.6
2017-09-27T12:57:24.005Z,48.5
2017-09-27T12:58:25.398Z,48.6
2017-09-27T12:59:26.789Z,48.8
2017-09-27T13:00:28.176Z,49.0
2017-09-27T13:01:29.562Z,49.4
2017-09-27T13:02:30.950Z,49.7
2017-09-27T13:03:32.337Z,50.8
2017-09-27T13:04:33.721Z,50.8
2017-09-27T13:05:35.109Z,51.3
2017-09-27T13:06:36.497Z,52.2
2017-09-27T13:07:37.886Z,52.3
2017-09-27T13:08:39.270Z,53.1
2017-09-27T13:09:40.657Z,53.3
2017-09-27T13:10:42.046Z,52.9
2017-09-27T13:11:43.437Z,53.2
2017-09-27T13:12:44.827Z,53.3
2017-09-27T13:13:46.208Z,54.2
2017-09-27T13:14:47.603Z,54.1
2017-09-27T13:15:48.985Z,55.2
2017-09-27T13:16:50.367Z,55.9
2017-09-27T13:17:51.756Z,55.0
2017-09-27T13:18:53.143Z,55.8
2017-09-27T13:19:54.537Z,56.2
2017-09-27T13:20:55.920Z,56.8
2017-09-27T13:21:57.307Z,56.8
2017-09-27T13:22:58.691Z,56.8
2017-09-27T13:24:00.074Z,56.5
2017-09-27T13:25:01.491Z,57.2
2017-09-27T13:26:02.878Z,56.8
2017-09-27T13:27:04.262Z,57.4
2017-09-27T13:28:05.646Z,56.8
2017-09-27T13:29:07.031Z,57.8
2017-09-27T13:30:08.414Z,57.6
2017-09-27T13:31:09.798Z,57.4
2017-09-27T13:32:11.179Z,57.2
2017-09-27T13:33:12.565Z,57.7
2017-09-27T13:34:13.946Z,57.9
2017-09-27T13:35:15.328Z,58.0
2017-09-27T13:36:16.714Z,58.5
2017-09-27T13:37:18.099Z,59.6
2017-09-27T13:38:19.482Z,58.4
2017-09-27T13:39:20.864Z,57.9
2017-09-27T13:40:22.247Z,58.7
2017-09-27T13:41:23.645Z,59.1
2017-09-27T13:42:25.025Z,58.6